sensor_id;sensor_type;location;lat;lon;timestamp;pressure;altitude;pressure_sealevel;temperature;humidity
48390;BME280;34643;47.964;7.982;2023-06-10T00:00:18;96258.94;;;23.14;58.96
48390;BME280;34643;47.964;7.982;2023-06-10T00:05:18;96254.66;;;23.13;59.36
48390;BME280;34643;47.964;7.982;2023-06-10T00:10:21;96263.38;;;23.13;59.22
48390;BME280;34643;47.964;7.982;2023-06-10T00:15:22;96261.72;;;23.12;59.26
48390;BME280;34643;47.964;7.982;2023-06-10T00:20:22;96266.19;;;23.12;59.15
48390;BME280;34643;47.964;7.982;2023-06-10T00:25:23;96257.47;;;23.11;59.23
48390;BME280;34643;47.964;7.982;2023-06-10T00:30:24;96262.72;;;23.11;58.98
48390;BME280;34643;47.964;7.982;2023-06-10T00:35:24;96265.38;;;23.11;59.12
48390;BME280;34643;47.964;7.982;2023-06-10T00:40:24;96262.72;;;23.11;58.91
48390;BME280;34643;47.964;7.982;2023-06-10T00:45:25;96264.53;;;23.11;59.03
48390;BME280;34643;47.964;7.982;2023-06-10T00:50:26;96265.53;;;23.10;58.99
48390;BME280;34643;47.964;7.982;2023-06-10T00:55:26;96261.22;;;23.09;59.21
48390;BME280;34643;47.964;7.982;2023-06-10T01:00:27;96263.88;;;23.09;59.01
48390;BME280;34643;47.964;7.982;2023-06-10T01:05:28;96270.94;;;23.08;59.11
48390;BME280;34643;47.964;7.982;2023-06-10T01:10:48;96264.88;;;23.08;58.85
48390;BME280;34643;47.964;7.982;2023-06-10T01:15:50;96265.84;;;23.07;58.86
48390;BME280;34643;47.964;7.982;2023-06-10T01:20:51;96277.19;;;23.07;59.08
48390;BME280;34643;47.964;7.982;2023-06-10T01:36:19;96285.25;;;23.06;58.96
48390;BME280;34643;47.964;7.982;2023-06-10T01:41:21;96285.25;;;23.06;58.83
48390;BME280;34643;47.964;7.982;2023-06-10T01:46:22;96288.03;;;23.04;58.96
48390;BME280;34643;47.964;7.982;2023-06-10T01:51:22;96288.03;;;23.04;58.73
48390;BME280;34643;47.964;7.982;2023-06-10T01:56:23;96295.09;;;23.04;59.01
48390;BME280;34643;47.964;7.982;2023-06-10T02:01:23;96291.78;;;23.02;58.99
48390;BME280;34643;47.964;7.982;2023-06-10T02:06:23;96290.81;;;23.03;59.02
48390;BME280;34643;47.964;7.982;2023-06-10T02:11:24;96294.41;;;23.02;58.85
48390;BME280;34643;47.964;7.982;2023-06-10T02:16:25;96306.63;;;23.03;58.71
48390;BME280;34643;47.964;7.982;2023-06-10T02:21:26;96299.84;;;23.00;59.07
48390;BME280;34643;47.964;7.982;2023-06-10T02:26:26;96296.41;;;23.00;58.93
48390;BME280;34643;47.964;7.982;2023-06-10T02:31:27;96293.75;;;23.00;59.13
48390;BME280;34643;47.964;7.982;2023-06-10T02:36:28;96291.13;;;23.00;58.65
48390;BME280;34643;47.964;7.982;2023-06-10T02:41:29;96296.41;;;23.00;59.05
48390;BME280;34643;47.964;7.982;2023-06-10T02:46:29;96300.00;;;22.98;58.91
48390;BME280;34643;47.964;7.982;2023-06-10T02:51:30;96301.81;;;22.98;58.72
48390;BME280;34643;47.964;7.982;2023-06-10T02:56:34;96298.38;;;22.97;58.70
48390;BME280;34643;47.964;7.982;2023-06-10T03:01:37;96297.53;;;22.97;58.61
48390;BME280;34643;47.964;7.982;2023-06-10T03:06:41;96304.59;;;22.96;59.04
48390;BME280;34643;47.964;7.982;2023-06-10T03:11:51;96309.88;;;22.96;59.08
48390;BME280;34643;47.964;7.982;2023-06-10T03:16:53;96301.16;;;22.96;58.85
48390;BME280;34643;47.964;7.982;2023-06-10T03:21:57;96316.94;;;22.96;58.90
48390;BME280;34643;47.964;7.982;2023-06-10T03:26:58;96319.75;;;22.94;58.81
48390;BME280;34643;47.964;7.982;2023-06-10T03:32:00;96316.94;;;22.96;58.71
48390;BME280;34643;47.964;7.982;2023-06-10T03:37:01;96327.63;;;22.94;58.72
48390;BME280;34643;47.964;7.982;2023-06-10T03:42:02;96323.34;;;22.93;58.87
48390;BME280;34643;47.964;7.982;2023-06-10T03:47:04;96325.16;;;22.93;58.89
48390;BME280;34643;47.964;7.982;2023-06-10T03:52:05;96327.78;;;22.93;58.85
48390;BME280;34643;47.964;7.982;2023-06-10T03:57:06;96331.22;;;22.93;58.88
48390;BME280;34643;47.964;7.982;2023-06-10T04:02:06;96329.59;;;22.92;58.67
48390;BME280;34643;47.964;7.982;2023-06-10T04:07:08;96332.25;;;22.92;58.84
48390;BME280;34643;47.964;7.982;2023-06-10T04:12:09;96326.97;;;22.92;58.91
48390;BME280;34643;47.964;7.982;2023-06-10T04:17:11;96336.69;;;22.92;58.41
48390;BME280;34643;47.964;7.982;2023-06-10T04:22:12;96338.47;;;22.91;58.63
48390;BME280;34643;47.964;7.982;2023-06-10T04:27:12;96339.47;;;22.90;58.43
48390;BME280;34643;47.964;7.982;2023-06-10T04:32:13;96346.38;;;22.91;58.51
48390;BME280;34643;47.964;7.982;2023-06-10T04:37:13;96344.72;;;22.90;58.81
48390;BME280;34643;47.964;7.982;2023-06-10T04:42:13;96350.97;;;22.89;58.60
48390;BME280;34643;47.964;7.982;2023-06-10T04:47:15;96354.25;;;22.91;58.65
48390;BME280;34643;47.964;7.982;2023-06-10T04:52:18;96352.63;;;22.90;58.66
48390;BME280;34643;47.964;7.982;2023-06-10T04:57:19;96353.59;;;22.89;58.73
48390;BME280;34643;47.964;7.982;2023-06-10T05:02:20;96357.91;;;22.90;58.63
48390;BME280;34643;47.964;7.982;2023-06-10T05:07:20;96355.25;;;22.90;58.62
48390;BME280;34643;47.964;7.982;2023-06-10T05:12:20;96361.34;;;22.91;58.54
48390;BME280;34643;47.964;7.982;2023-06-10T05:17:21;96357.91;;;22.90;58.98
48390;BME280;34643;47.964;7.982;2023-06-10T05:22:21;96365.78;;;22.90;58.79
48390;BME280;34643;47.964;7.982;2023-06-10T05:27:24;96377.13;;;22.91;59.05
48390;BME280;34643;47.964;7.982;2023-06-10T05:32:24;96371.06;;;22.90;58.99
48390;BME280;34643;47.964;7.982;2023-06-10T05:37:24;96373.69;;;22.90;58.69
48390;BME280;34643;47.964;7.982;2023-06-10T05:42:25;96376.31;;;22.90;58.69
48390;BME280;34643;47.964;7.982;2023-06-10T05:47:25;96375.47;;;22.90;58.95
48390;BME280;34643;47.964;7.982;2023-06-10T05:52:26;96372.84;;;22.90;58.79
48390;BME280;34643;47.964;7.982;2023-06-10T05:57:26;96377.13;;;22.91;58.93
48390;BME280;34643;47.964;7.982;2023-06-10T06:02:26;96374.50;;;22.91;59.01
48390;BME280;34643;47.964;7.982;2023-06-10T06:07:26;96373.69;;;22.90;59.11
48390;BME280;34643;47.964;7.982;2023-06-10T06:12:27;96377.94;;;22.91;58.82
48390;BME280;34643;47.964;7.982;2023-06-10T06:17:27;96374.34;;;22.92;59.05
48390;BME280;34643;47.964;7.982;2023-06-10T06:22:27;96359.53;;;22.91;58.69
48390;BME280;34643;47.964;7.982;2023-06-10T06:27:28;96358.56;;;22.92;59.07
48390;BME280;34643;47.964;7.982;2023-06-10T06:32:28;96357.56;;;22.93;58.98
48390;BME280;34643;47.964;7.982;2023-06-10T06:37:28;96360.19;;;22.93;59.06
48390;BME280;34643;47.964;7.982;2023-06-10T06:42:44;96356.59;;;22.94;58.76
48390;BME280;34643;47.964;7.982;2023-06-10T06:48:08;96366.94;;;22.96;58.81
48390;BME280;34643;47.964;7.982;2023-06-10T06:53:08;96370.41;;;22.96;59.03
48390;BME280;34643;47.964;7.982;2023-06-10T06:58:08;96378.13;;;22.98;58.84
48390;BME280;34643;47.964;7.982;2023-06-10T07:03:09;96364.97;;;22.98;58.60
48390;BME280;34643;47.964;7.982;2023-06-10T07:08:09;96371.06;;;22.98;58.59
48390;BME280;34643;47.964;7.982;2023-06-10T07:13:09;96363.00;;;23.00;58.66
48390;BME280;34643;47.964;7.982;2023-06-10T07:18:10;96364.81;;;23.00;58.92
48390;BME280;34643;47.964;7.982;2023-06-10T07:23:10;96360.38;;;23.00;58.73
48390;BME280;34643;47.964;7.982;2023-06-10T07:28:10;96357.75;;;23.00;58.96
48390;BME280;34643;47.964;7.982;2023-06-10T07:33:11;96365.47;;;23.02;59.03
48390;BME280;34643;47.964;7.982;2023-06-10T07:38:11;96362.84;;;23.02;58.99
48390;BME280;34643;47.964;7.982;2023-06-10T07:43:11;96355.63;;;23.04;59.03
48390;BME280;34643;47.964;7.982;2023-06-10T07:48:12;96360.06;;;23.03;58.60
48390;BME280;34643;47.964;7.982;2023-06-10T07:53:13;96353.84;;;23.04;58.62
48390;BME280;34643;47.964;7.982;2023-06-10T07:58:13;96351.19;;;23.04;58.65
48390;BME280;34643;47.964;7.982;2023-06-10T08:03:14;96358.94;;;23.06;58.67
48390;BME280;34643;47.964;7.982;2023-06-10T08:08:14;96364.03;;;23.07;58.63
48390;BME280;34643;47.964;7.982;2023-06-10T08:13:14;96365.88;;;23.07;58.64
48390;BME280;34643;47.964;7.982;2023-06-10T08:18:15;96362.06;;;23.09;58.93
48390;BME280;34643;47.964;7.982;2023-06-10T08:23:15;96360.28;;;23.10;58.72
48390;BME280;34643;47.964;7.982;2023-06-10T08:28:15;96360.28;;;23.10;58.96
48390;BME280;34643;47.964;7.982;2023-06-10T08:33:16;96361.09;;;23.10;58.71
48390;BME280;34643;47.964;7.982;2023-06-10T08:38:17;96360.94;;;23.12;58.67
48390;BME280;34643;47.964;7.982;2023-06-10T08:43:22;96356.50;;;23.12;58.80
48390;BME280;34643;47.964;7.982;2023-06-10T08:48:29;96359.94;;;23.13;58.56
48390;BME280;34643;47.964;7.982;2023-06-10T08:53:32;96358.97;;;23.14;58.82
48390;BME280;34643;47.964;7.982;2023-06-10T08:58:34;96358.00;;;23.15;58.89
48390;BME280;34643;47.964;7.982;2023-06-10T09:03:40;96356.03;;;23.17;58.93
48390;BME280;34643;47.964;7.982;2023-06-10T09:08:41;96355.03;;;23.18;59.03
48390;BME280;34643;47.964;7.982;2023-06-10T09:13:42;96357.66;;;23.18;58.96
48390;BME280;34643;47.964;7.982;2023-06-10T09:18:42;96352.25;;;23.20;58.99
48390;BME280;34643;47.964;7.982;2023-06-10T09:23:44;96350.41;;;23.20;58.92
48390;BME280;34643;47.964;7.982;2023-06-10T09:28:48;96359.97;;;23.21;59.04
48390;BME280;34643;47.964;7.982;2023-06-10T09:33:50;96350.25;;;23.22;59.10
48390;BME280;34643;47.964;7.982;2023-06-10T09:38:50;96346.81;;;23.21;58.98
48390;BME280;34643;47.964;7.982;2023-06-10T09:43:53;96349.28;;;23.23;58.76
48390;BME280;34643;47.964;7.982;2023-06-10T09:48:53;96357.19;;;23.23;59.08
48390;BME280;34643;47.964;7.982;2023-06-10T09:53:54;96347.31;;;23.25;59.12
48390;BME280;34643;47.964;7.982;2023-06-10T09:58:54;96356.03;;;23.25;59.18
48390;BME280;34643;47.964;7.982;2023-06-10T10:03:54;96349.78;;;23.26;58.80
48390;BME280;34643;47.964;7.982;2023-06-10T10:08:55;96345.34;;;23.27;59.14
48390;BME280;34643;47.964;7.982;2023-06-10T10:13:55;96346.19;;;23.27;58.96
48390;BME280;34643;47.964;7.982;2023-06-10T10:18:56;96353.91;;;23.29;59.17
48390;BME280;34643;47.964;7.982;2023-06-10T10:24:05;96351.94;;;23.31;58.86
48390;BME280;34643;47.964;7.982;2023-06-10T10:34:09;96346.69;;;23.31;58.92
48390;BME280;34643;47.964;7.982;2023-06-10T10:39:12;96345.84;;;23.30;59.10
48390;BME280;34643;47.964;7.982;2023-06-10T10:44:12;96346.69;;;23.31;59.01
48390;BME280;34643;47.964;7.982;2023-06-10T10:49:13;96342.22;;;23.31;59.17
48390;BME280;34643;47.964;7.982;2023-06-10T10:54:14;96340.41;;;23.32;59.02
48390;BME280;34643;47.964;7.982;2023-06-10T10:59:15;96338.59;;;23.32;59.14
48390;BME280;34643;47.964;7.982;2023-06-10T11:04:19;96341.22;;;23.32;58.95
48390;BME280;34643;47.964;7.982;2023-06-10T11:09:27;96326.44;;;23.31;59.38
48390;BME280;34643;47.964;7.982;2023-06-10T11:14:30;96330.53;;;23.34;58.92
48390;BME280;34643;47.964;7.982;2023-06-10T11:19:34;96331.38;;;23.34;59.16
48390;BME280;34643;47.964;7.982;2023-06-10T11:24:35;96331.38;;;23.34;59.08
48390;BME280;34643;47.964;7.982;2023-06-10T11:29:35;96327.09;;;23.33;58.90
48390;BME280;34643;47.964;7.982;2023-06-10T11:34:36;96316.41;;;23.35;59.13
48390;BME280;34643;47.964;7.982;2023-06-10T11:39:36;96318.88;;;23.37;59.42
48390;BME280;34643;47.964;7.982;2023-06-10T11:44:36;96315.41;;;23.44;58.79
48390;BME280;34643;47.964;7.982;2023-06-10T11:49:37;96319.53;;;23.47;58.47
48390;BME280;34643;47.964;7.982;2023-06-10T11:54:38;96320.34;;;23.47;58.61
48390;BME280;34643;47.964;7.982;2023-06-10T11:59:38;96320.34;;;23.47;59.03
48390;BME280;34643;47.964;7.982;2023-06-10T12:04:41;96312.94;;;23.51;58.88
48390;BME280;34643;47.964;7.982;2023-06-10T12:09:42;96314.91;;;23.57;58.74
48390;BME280;34643;47.964;7.982;2023-06-10T12:14:58;96319.53;;;23.47;58.82
48390;BME280;34643;47.964;7.982;2023-06-10T12:20:04;96312.94;;;23.43;58.99
48390;BME280;34643;47.964;7.982;2023-06-10T12:25:05;96306.84;;;23.42;58.98
48390;BME280;34643;47.964;7.982;2023-06-10T12:30:06;96310.31;;;23.43;58.99
48390;BME280;34643;47.964;7.982;2023-06-10T12:35:07;96303.41;;;23.42;58.82
48390;BME280;34643;47.964;7.982;2023-06-10T12:40:08;96304.88;;;23.44;58.77
48390;BME280;34643;47.964;7.982;2023-06-10T12:45:09;96302.09;;;23.46;59.04
48390;BME280;34643;47.964;7.982;2023-06-10T12:50:10;96312.63;;;23.46;58.92
48390;BME280;34643;47.964;7.982;2023-06-10T12:55:12;96300.41;;;23.45;59.51
48390;BME280;34643;47.964;7.982;2023-06-10T13:00:12;96299.44;;;23.46;59.46
48390;BME280;34643;47.964;7.982;2023-06-10T13:05:14;96294.19;;;23.46;59.47
48390;BME280;34643;47.964;7.982;2023-06-10T13:10:15;96290.56;;;23.47;59.84
48390;BME280;34643;47.964;7.982;2023-06-10T13:20:16;96283.97;;;23.92;58.47
48390;BME280;34643;47.964;7.982;2023-06-10T13:25:17;96281.81;;;23.96;58.98
48390;BME280;34643;47.964;7.982;2023-06-10T13:30:17;96275.72;;;23.79;59.38
48390;BME280;34643;47.964;7.982;2023-06-10T13:35:17;96280.69;;;23.65;59.45
48390;BME280;34643;47.964;7.982;2023-06-10T13:40:18;96270.13;;;23.65;59.16
48390;BME280;34643;47.964;7.982;2023-06-10T13:45:19;96265.19;;;23.62;59.24
48390;BME280;34643;47.964;7.982;2023-06-10T13:50:20;96263.56;;;23.61;59.28
48390;BME280;34643;47.964;7.982;2023-06-10T13:55:20;96258.31;;;23.61;59.08
48390;BME280;34643;47.964;7.982;2023-06-10T14:00:21;96259.94;;;23.62;58.90
48390;BME280;34643;47.964;7.982;2023-06-10T14:05:21;96253.03;;;23.61;58.70
48390;BME280;34643;47.964;7.982;2023-06-10T14:10:21;96251.38;;;23.60;59.06
48390;BME280;34643;47.964;7.982;2023-06-10T14:15:22;96249.72;;;23.59;59.02
48390;BME280;34643;47.964;7.982;2023-06-10T14:20:23;96241.81;;;23.59;58.95
48390;BME280;34643;47.964;7.982;2023-06-10T14:25:25;96234.75;;;23.60;58.75
48390;BME280;34643;47.964;7.982;2023-06-10T14:30:25;96234.41;;;23.63;59.07
48390;BME280;34643;47.964;7.982;2023-06-10T14:35:26;96232.59;;;23.63;58.85
48390;BME280;34643;47.964;7.982;2023-06-10T14:40:26;96221.06;;;23.64;59.08
48390;BME280;34643;47.964;7.982;2023-06-10T14:45:29;96234.91;;;23.66;58.98
48390;BME280;34643;47.964;7.982;2023-06-10T14:50:29;96224.38;;;23.66;58.68
48390;BME280;34643;47.964;7.982;2023-06-10T14:55:29;96219.91;;;23.67;58.88
48390;BME280;34643;47.964;7.982;2023-06-10T15:00:30;96213.00;;;23.66;59.17
48390;BME280;34643;47.964;7.982;2023-06-10T15:05:30;96213.16;;;23.64;58.83
48390;BME280;34643;47.964;7.982;2023-06-10T15:10:30;96205.25;;;23.64;58.84
48390;BME280;34643;47.964;7.982;2023-06-10T15:15:31;96202.47;;;23.66;58.90
48390;BME280;34643;47.964;7.982;2023-06-10T15:20:31;96208.56;;;23.66;59.22
48390;BME280;34643;47.964;7.982;2023-06-10T15:25:31;96211.00;;;23.68;58.98
48390;BME280;34643;47.964;7.982;2023-06-10T15:30:31;96204.13;;;23.67;59.18
48390;BME280;34643;47.964;7.982;2023-06-10T15:35:32;96208.72;;;23.65;59.14
48390;BME280;34643;47.964;7.982;2023-06-10T15:40:32;96212.19;;;23.65;59.24
48390;BME280;34643;47.964;7.982;2023-06-10T15:45:33;96215.78;;;23.64;59.20
48390;BME280;34643;47.964;7.982;2023-06-10T15:50:33;96205.25;;;23.64;59.18
48390;BME280;34643;47.964;7.982;2023-06-10T15:55:33;96200.66;;;23.66;58.97
48390;BME280;34643;47.964;7.982;2023-06-10T16:00:34;96196.22;;;23.67;59.24
48390;BME280;34643;47.964;7.982;2023-06-10T16:05:34;96194.38;;;23.67;59.32
48390;BME280;34643;47.964;7.982;2023-06-10T16:10:34;96193.41;;;23.68;59.01
48390;BME280;34643;47.964;7.982;2023-06-10T16:15:34;96193.56;;;23.67;59.03
48390;BME280;34643;47.964;7.982;2023-06-10T16:20:35;96198.03;;;23.66;59.42
48390;BME280;34643;47.964;7.982;2023-06-10T16:25:35;96193.56;;;23.67;59.07
48390;BME280;34643;47.964;7.982;2023-06-10T16:30:35;96179.41;;;23.68;59.14
48390;BME280;34643;47.964;7.982;2023-06-10T16:35:36;96189.78;;;23.69;59.12
48390;BME280;34643;47.964;7.982;2023-06-10T16:40:36;96207.41;;;23.69;59.33
48390;BME280;34643;47.964;7.982;2023-06-10T16:45:37;96205.75;;;23.68;59.37
48390;BME280;34643;47.964;7.982;2023-06-10T16:50:37;96216.28;;;23.68;59.21
48390;BME280;34643;47.964;7.982;2023-06-10T16:55:37;96215.31;;;23.69;59.14
48390;BME280;34643;47.964;7.982;2023-06-10T17:00:38;96221.56;;;23.68;59.48
48390;BME280;34643;47.964;7.982;2023-06-10T17:05:38;96219.75;;;23.68;59.27
48390;BME280;34643;47.964;7.982;2023-06-10T17:10:39;96217.94;;;23.69;59.53
48390;BME280;34643;47.964;7.982;2023-06-10T17:15:40;96222.41;;;23.68;59.51
48390;BME280;34643;47.964;7.982;2023-06-10T17:20:40;96222.41;;;23.68;59.48
48390;BME280;34643;47.964;7.982;2023-06-10T17:25:41;96227.66;;;23.68;59.28
48390;BME280;34643;47.964;7.982;2023-06-10T17:30:41;96238.19;;;23.68;59.38
48390;BME280;34643;47.964;7.982;2023-06-10T17:35:41;96243.47;;;23.68;59.08
48390;BME280;34643;47.964;7.982;2023-06-10T17:40:42;96243.31;;;23.70;59.29
48390;BME280;34643;47.964;7.982;2023-06-10T17:45:42;96249.22;;;23.72;58.97
48390;BME280;34643;47.964;7.982;2023-06-10T17:50:43;96246.72;;;23.79;59.04
48390;BME280;34643;47.964;7.982;2023-06-10T17:55:43;96259.25;;;23.77;58.78
48390;BME280;34643;47.964;7.982;2023-06-10T18:00:44;96259.44;;;23.67;59.04
48390;BME280;34643;47.964;7.982;2023-06-10T18:05:47;96260.94;;;23.61;58.57
48390;BME280;34643;47.964;7.982;2023-06-10T18:10:48;96269.97;;;23.59;58.68
48390;BME280;34643;47.964;7.982;2023-06-10T18:15:48;96273.63;;;23.58;58.35
48390;BME280;34643;47.964;7.982;2023-06-10T18:20:48;96279.53;;;23.60;58.70
48390;BME280;34643;47.964;7.982;2023-06-10T18:25:49;96281.66;;;23.64;58.67
48390;BME280;34643;47.964;7.982;2023-06-10T18:30:52;96291.22;;;23.65;58.43
48390;BME280;34643;47.964;7.982;2023-06-10T18:35:52;96300.78;;;23.66;58.62
48390;BME280;34643;47.964;7.982;2023-06-10T18:40:54;96298.97;;;23.67;58.46
48390;BME280;34643;47.964;7.982;2023-06-10T18:45:54;96309.50;;;23.67;58.69
48390;BME280;34643;47.964;7.982;2023-06-10T18:50:55;96310.47;;;23.66;58.52
48390;BME280;34643;47.964;7.982;2023-06-10T18:55:55;96316.25;;;23.61;56.10
48390;BME280;34643;47.964;7.982;2023-06-10T19:01:02;96306.34;;;23.71;53.33
48390;BME280;34643;47.964;7.982;2023-06-10T19:06:02;96319.19;;;23.75;54.76
48390;BME280;34643;47.964;7.982;2023-06-10T19:11:03;96321.03;;;23.74;55.81
48390;BME280;34643;47.964;7.982;2023-06-10T19:16:05;96326.97;;;23.84;56.83
48390;BME280;34643;47.964;7.982;2023-06-10T19:21:07;96333.38;;;23.98;57.41
48390;BME280;34643;47.964;7.982;2023-06-10T19:26:07;96335.34;;;23.96;58.03
48390;BME280;34643;47.964;7.982;2023-06-10T19:31:08;96344.91;;;23.97;58.04
48390;BME280;34643;47.964;7.982;2023-06-10T19:36:09;96336.84;;;23.99;58.50
48390;BME280;34643;47.964;7.982;2023-06-10T19:41:09;96358.59;;;24.01;58.68
48390;BME280;34643;47.964;7.982;2023-06-10T19:46:09;96350.34;;;24.04;58.37
48390;BME280;34643;47.964;7.982;2023-06-10T19:51:11;96366.00;;;23.97;58.73
48390;BME280;34643;47.964;7.982;2023-06-10T19:56:12;96377.69;;;23.95;57.70
48390;BME280;34643;47.964;7.982;2023-06-10T20:01:18;96374.06;;;23.87;57.89
48390;BME280;34643;47.964;7.982;2023-06-10T20:06:18;96385.13;;;23.83;56.64
48390;BME280;34643;47.964;7.982;2023-06-10T20:11:19;96381.84;;;23.81;57.36
48390;BME280;34643;47.964;7.982;2023-06-10T20:16:19;96390.03;;;23.86;57.68
48390;BME280;34643;47.964;7.982;2023-06-10T20:21:20;96395.16;;;23.87;58.37
48390;BME280;34643;47.964;7.982;2023-06-10T20:26:20;96387.09;;;23.89;58.16
48390;BME280;34643;47.964;7.982;2023-06-10T20:31:21;96391.66;;;23.79;58.00
48390;BME280;34643;47.964;7.982;2023-06-10T20:36:25;96402.88;;;23.72;57.55
48390;BME280;34643;47.964;7.982;2023-06-10T20:41:26;96407.31;;;23.72;57.78
48390;BME280;34643;47.964;7.982;2023-06-10T20:46:26;96410.94;;;23.71;57.35
48390;BME280;34643;47.964;7.982;2023-06-10T20:51:27;96412.91;;;23.69;57.71
48390;BME280;34643;47.964;7.982;2023-06-10T20:56:27;96417.84;;;23.72;57.71
48390;BME280;34643;47.964;7.982;2023-06-10T21:01:27;96420.66;;;23.70;58.02
48390;BME280;34643;47.964;7.982;2023-06-10T21:06:27;96425.09;;;23.70;57.62
48390;BME280;34643;47.964;7.982;2023-06-10T21:11:28;96432.31;;;23.68;57.72
48390;BME280;34643;47.964;7.982;2023-06-10T21:16:28;96428.88;;;23.67;57.50
48390;BME280;34643;47.964;7.982;2023-06-10T21:21:30;96429.88;;;23.66;57.37
48390;BME280;34643;47.964;7.982;2023-06-10T21:26:30;96428.88;;;23.67;57.21
48390;BME280;34643;47.964;7.982;2023-06-10T21:31:32;96428.22;;;23.65;56.87
48390;BME280;34643;47.964;7.982;2023-06-10T21:36:32;96428.22;;;23.65;56.74
48390;BME280;34643;47.964;7.982;2023-06-10T21:41:33;96421.44;;;23.63;56.64
48390;BME280;34643;47.964;7.982;2023-06-10T21:46:33;96418.81;;;23.63;56.48
48390;BME280;34643;47.964;7.982;2023-06-10T21:51:34;96428.53;;;23.62;56.07
48390;BME280;34643;47.964;7.982;2023-06-10T21:56:34;96430.50;;;23.60;55.68
48390;BME280;34643;47.964;7.982;2023-06-10T22:01:34;96429.84;;;23.58;55.67
48390;BME280;34643;47.964;7.982;2023-06-10T22:06:35;96431.66;;;23.58;55.35
48390;BME280;34643;47.964;7.982;2023-06-10T22:11:36;96432.50;;;23.58;55.62
48390;BME280;34643;47.964;7.982;2023-06-10T22:16:36;96430.00;;;23.57;54.99
48390;BME280;34643;47.964;7.982;2023-06-10T22:21:36;96439.06;;;23.54;55.65
48390;BME280;34643;47.964;7.982;2023-06-10T22:26:37;96435.59;;;23.53;55.19
48390;BME280;34643;47.964;7.982;2023-06-10T22:31:37;96436.75;;;23.51;54.69
48390;BME280;34643;47.964;7.982;2023-06-10T22:41:41;96435.09;;;23.50;54.54
48390;BME280;34643;47.964;7.982;2023-06-10T22:46:42;96432.47;;;23.50;55.11
48390;BME280;34643;47.964;7.982;2023-06-10T22:51:42;96429.00;;;23.49;54.53
48390;BME280;34643;47.964;7.982;2023-06-10T22:56:44;96434.28;;;23.49;54.92
48390;BME280;34643;47.964;7.982;2023-06-10T23:01:44;96426.22;;;23.51;55.20
48390;BME280;34643;47.964;7.982;2023-06-10T23:06:46;96427.38;;;23.57;55.32
48390;BME280;34643;47.964;7.982;2023-06-10T23:11:47;96420.28;;;23.57;55.77
48390;BME280;34643;47.964;7.982;2023-06-10T23:16:47;96434.63;;;23.54;55.53
48390;BME280;34643;47.964;7.982;2023-06-10T23:21:47;96433.13;;;23.52;55.35
48390;BME280;34643;47.964;7.982;2023-06-10T23:26:53;96439.22;;;23.52;54.28
48390;BME280;34643;47.964;7.982;2023-06-10T23:31:53;96435.44;;;23.47;54.82
48390;BME280;34643;47.964;7.982;2023-06-10T23:41:56;96437.06;;;23.48;55.45
48390;BME280;34643;47.964;7.982;2023-06-10T23:46:56;96435.94;;;23.50;55.63
48390;BME280;34643;47.964;7.982;2023-06-10T23:56:57;96444.81;;;23.49;55.53
